Time;durP1;ratioP1;P1;durP2;ratioP2;P2;SDS_P1;SDS_P2;PMS_P1;PMS_P2;Temp;Humidity;BMP_temperature;BMP_pressure;BME280_temperature;BME280_humidity;BME280_pressure;Samples;Min_cycle;Max_cycle;Signal;HPM_P1;HPM_P2
2022/07/03 00:00:23;;;;;;;1.67;1.23;;;;;;;18.63;59.25;101097.00;6001492;28;20434;-67
2022/07/03 00:03:19;;;;;;;7.47;1.83;;;;;;;18.62;58.98;101089.97;6003645;28;20289;-67
2022/07/03 00:06:14;;;;;;;2.93;1.40;;;;;;;18.66;58.66;101080.53;5990496;28;20491;-68
2022/07/03 00:09:09;;;;;;;2.55;1.70;;;;;;;18.65;58.83;101089.59;5993764;28;20094;-67
2022/07/03 00:12:05;;;;;;;3.13;1.47;;;;;;;18.66;58.86;101093.94;6002665;28;20077;-67
2022/07/03 00:15:00;;;;;;;1.52;1.30;;;;;;;18.61;58.99;101077.56;6003275;28;20504;-67
2022/07/03 00:17:56;;;;;;;2.10;1.33;;;;;;;18.64;58.90;101087.09;5993698;28;20046;-67
2022/07/03 00:20:59;;;;;;;2.67;1.50;;;;;;;18.65;58.95;101094.13;6002719;28;20120;-68
2022/07/03 00:24:04;;;;;;;3.67;1.63;;;;;;;18.64;59.32;101085.25;6002229;28;20047;-67
2022/07/03 00:27:00;;;;;;;3.40;1.55;;;;;;;18.60;59.35;101092.00;6003945;28;20107;-67
2022/07/03 00:29:58;;;;;;;2.33;1.48;;;;;;;18.51;58.99;101082.38;6002427;28;20046;-67
2022/07/03 00:32:53;;;;;;;2.28;1.40;;;;;;;18.46;59.47;101087.47;6002201;28;20043;-68
2022/07/03 00:35:51;;;;;;;2.60;1.70;;;;;;;18.34;59.97;101075.56;6003305;28;20074;-67
2022/07/03 00:38:46;;;;;;;4.55;1.60;;;;;;;18.27;60.29;101069.25;6002141;28;20039;-68
2022/07/03 00:41:44;;;;;;;2.60;1.40;;;;;;;18.21;59.98;101056.56;6000531;28;20042;-68
2022/07/03 00:44:49;;;;;;;3.30;1.52;;;;;;;18.23;60.17;101073.34;6001414;28;20035;-67
2022/07/03 00:47:45;;;;;;;2.45;1.45;;;;;;;18.11;60.81;101054.19;5996350;28;20066;-67
2022/07/03 00:50:46;;;;;;;2.73;1.63;;;;;;;18.06;60.76;101056.59;6002087;28;20035;-67
2022/07/03 00:53:41;;;;;;;3.50;1.63;;;;;;;17.97;61.47;101056.88;6002438;28;20035;-67
2022/07/03 00:56:39;;;;;;;4.63;1.65;;;;;;;17.89;61.76;101055.13;6002575;28;20117;-67
2022/07/03 00:59:34;;;;;;;1.95;1.30;;;;;;;17.80;62.07;101051.69;6002221;28;20054;-67
2022/07/03 01:02:48;;;;;;;3.03;1.57;;;;;;;17.76;62.08;101058.44;6000927;28;20113;-67
2022/07/03 01:05:52;;;;;;;3.42;1.52;;;;;;;17.66;62.49;101047.16;6002283;28;20039;-67
2022/07/03 01:08:49;;;;;;;3.10;1.80;;;;;;;17.69;62.38;101051.31;6002709;28;20049;-68
2022/07/03 01:11:55;;;;;;;3.35;1.95;;;;;;;17.67;62.36;101046.13;5999231;28;20034;-66
2022/07/03 01:15:12;;;;;;;2.50;1.55;;;;;;;17.66;62.50;101049.00;6001357;28;20042;-67
2022/07/03 01:18:10;;;;;;;2.50;1.60;;;;;;;17.64;62.46;101053.69;6000540;28;20063;-67
2022/07/03 01:21:09;;;;;;;3.53;2.00;;;;;;;17.66;62.82;101049.00;6001560;28;20042;-67
2022/07/03 01:24:29;;;;;;;5.03;1.38;;;;;;;17.62;62.48;101051.22;5989245;28;20118;-68
2022/07/03 01:27:33;;;;;;;3.80;2.10;;;;;;;17.66;62.48;101049.84;5992841;28;20530;-67
2022/07/03 01:30:31;;;;;;;3.67;1.67;;;;;;;17.58;62.54;101036.50;6001512;28;20039;-67
2022/07/03 01:33:33;;;;;;;2.53;1.50;;;;;;;17.57;62.76;101037.53;6000274;28;20038;-67
2022/07/03 01:36:29;;;;;;;2.42;1.60;;;;;;;17.62;62.50;101035.13;6001840;28;20039;-67
2022/07/03 01:39:26;;;;;;;2.65;1.42;;;;;;;17.50;62.92;101022.31;6016668;28;20463;-67
2022/07/03 01:42:22;;;;;;;4.55;1.40;;;;;;;17.49;63.12;101037.56;6001401;28;20081;-67
2022/07/03 01:45:19;;;;;;;4.10;1.40;;;;;;;17.41;62.76;101029.63;5995268;28;20035;-66
2022/07/03 01:48:14;;;;;;;2.28;1.60;;;;;;;17.41;63.22;101021.56;6001974;28;20043;-67
2022/07/03 01:51:13;;;;;;;2.35;1.77;;;;;;;17.39;63.52;101031.66;6000609;28;20038;-67
2022/07/03 01:54:10;;;;;;;5.05;1.90;;;;;;;17.33;63.96;101021.66;6002217;28;20143;-66
2022/07/03 01:57:06;;;;;;;2.72;1.80;;;;;;;17.28;63.70;101024.03;6001902;28;20062;-67
2022/07/03 02:00:01;;;;;;;2.67;1.63;;;;;;;17.30;63.87;101022.00;5999021;28;20050;-67
2022/07/03 02:03:04;;;;;;;2.92;1.67;;;;;;;17.28;63.90;101018.69;5995535;28;20031;-67
2022/07/03 02:06:06;;;;;;;2.78;1.58;;;;;;;17.28;63.97;101014.13;5989445;28;20457;-67
2022/07/03 02:09:06;;;;;;;3.97;1.55;;;;;;;17.28;63.85;101022.19;6001351;28;20038;-66
2022/07/03 02:12:03;;;;;;;2.83;1.63;;;;;;;17.21;63.93;101017.72;6001041;28;20069;-67
2022/07/03 02:15:04;;;;;;;4.30;1.75;;;;;;;17.22;64.11;101020.25;5991960;28;20045;-67
2022/07/03 02:18:17;;;;;;;2.30;1.70;;;;;;;17.19;64.59;101022.44;6000529;28;20148;-67
2022/07/03 02:21:18;;;;;;;;;;;;;;;17.22;64.59;101030.13;6019644;28;20105;-67
2022/07/03 02:24:25;;;;;;;4.50;1.73;;;;;;;17.10;65.04;101023.53;5993473;28;19925;-67
2022/07/03 02:27:22;;;;;;;2.60;1.42;;;;;;;17.01;65.10;101016.59;6005732;28;20542;-66
2022/07/03 02:30:18;;;;;;;4.45;1.73;;;;;;;17.06;64.94;101022.22;6004844;28;20041;-67
2022/07/03 02:33:18;;;;;;;3.53;1.70;;;;;;;17.13;64.57;101021.31;6020387;28;20106;-67
2022/07/03 02:36:14;;;;;;;3.45;1.73;;;;;;;17.18;64.04;101023.44;6021052;28;20519;-66
2022/07/03 02:39:16;;;;;;;4.25;2.00;;;;;;;17.14;64.19;101017.63;6004438;28;20526;-67
2022/07/03 02:42:39;;;;;;;3.33;1.63;;;;;;;17.06;64.48;101014.19;6018778;28;20039;-67
2022/07/03 02:45:55;;;;;;;3.03;1.80;;;;;;;17.01;65.13;101019.25;5996879;28;20471;-66
2022/07/03 02:49:08;;;;;;;3.05;1.88;;;;;;;17.01;64.89;101011.22;6004649;28;21538;-67
2022/07/03 02:52:22;;;;;;;2.47;1.60;;;;;;;17.03;65.09;101020.75;5999203;28;20126;-67
2022/07/03 02:55:27;;;;;;;2.58;1.83;;;;;;;17.01;65.38;101011.22;6004909;28;20386;-67
2022/07/03 02:58:45;;;;;;;3.25;1.77;;;;;;;17.03;65.01;101017.22;6005628;28;20118;-67
2022/07/03 03:01:48;;;;;;;2.65;1.50;;;;;;;16.97;65.21;101010.75;5996923;28;20137;-67
2022/07/03 03:04:49;;;;;;;2.38;1.55;;;;;;;16.94;65.44;101000.38;6019663;28;20030;-67
2022/07/03 03:08:01;;;;;;;2.47;1.52;;;;;;;16.95;65.45;101012.78;6002856;28;20035;-67
2022/07/03 03:11:11;;;;;;;3.08;1.70;;;;;;;16.86;65.78;101007.66;6001041;28;20038;-66
2022/07/03 03:14:09;;;;;;;3.33;2.10;;;;;;;16.85;66.08;101011.34;6002289;28;20043;-67
2022/07/03 03:17:05;;;;;;;3.08;1.95;;;;;;;16.80;66.22;101001.16;6003749;28;20471;-67
2022/07/03 03:20:02;;;;;;;3.58;1.55;;;;;;;16.81;66.13;101010.03;5992789;28;20117;-66
2022/07/03 03:23:09;;;;;;;3.22;1.98;;;;;;;16.85;65.96;101006.00;6001179;28;20030;-67
2022/07/03 03:26:04;;;;;;;2.75;1.60;;;;;;;16.84;66.02;101004.31;6005338;28;20042;-67
2022/07/03 03:29:00;;;;;;;2.10;1.67;;;;;;;16.80;65.98;101019.91;5999958;28;20479;-68
2022/07/03 03:31:55;;;;;;;4.20;2.42;;;;;;;16.71;66.22;101021.00;6004238;28;20074;-67
2022/07/03 03:34:51;;;;;;;4.18;1.90;;;;;;;16.70;66.26;101013.97;6004566;28;20046;-67
2022/07/03 03:37:48;;;;;;;3.27;2.03;;;;;;;16.72;66.50;101016.44;6003160;28;20030;-67
2022/07/03 03:40:44;;;;;;;2.83;1.50;;;;;;;16.63;67.22;101005.78;6004298;28;20030;-67
2022/07/03 03:43:40;;;;;;;4.15;1.80;;;;;;;16.55;67.42;101005.84;6002727;28;20483;-66
2022/07/03 03:46:35;;;;;;;5.33;1.80;;;;;;;16.47;68.13;101007.75;6003850;28;20093;-67
2022/07/03 03:49:30;;;;;;;3.67;1.80;;;;;;;16.37;68.35;101005.28;6004751;28;20035;-68
2022/07/03 03:52:26;;;;;;;2.13;1.77;;;;;;;16.37;68.71;101005.28;6002908;28;20118;-67
2022/07/03 03:55:21;;;;;;;3.47;1.90;;;;;;;16.32;68.67;100998.78;6002775;28;20089;-67
2022/07/03 03:58:16;;;;;;;3.10;1.90;;;;;;;16.36;69.01;101006.28;6003908;28;20038;-67
2022/07/03 04:01:12;;;;;;;2.93;1.80;;;;;;;16.35;68.91;101006.47;6002874;28;20035;-67
2022/07/03 04:04:07;;;;;;;3.38;2.25;;;;;;;16.31;69.03;100997.09;6003750;28;20034;-67
2022/07/03 04:07:02;;;;;;;4.03;2.10;;;;;;;16.19;69.31;100983.31;6002875;28;20050;-68
2022/07/03 04:09:58;;;;;;;3.20;1.90;;;;;;;16.26;69.98;101000.31;6002389;28;20662;-67
2022/07/03 04:12:53;;;;;;;3.87;2.13;;;;;;;16.27;69.87;100995.81;6003060;28;20031;-68
2022/07/03 04:15:50;;;;;;;5.17;2.50;;;;;;;16.22;69.64;100988.31;6003097;28;20043;-67
2022/07/03 04:18:45;;;;;;;3.22;1.98;;;;;;;16.15;70.51;100998.03;6003687;28;20046;-67
2022/07/03 04:21:40;;;;;;;3.97;2.00;;;;;;;16.15;70.08;100991.84;6001733;28;20038;-67
2022/07/03 04:24:36;;;;;;;5.53;2.30;;;;;;;16.05;70.86;100986.72;6002512;28;20027;-67
2022/07/03 04:27:32;;;;;;;3.42;2.35;;;;;;;16.00;71.34;100989.09;6002941;28;20514;-66
2022/07/03 04:30:27;;;;;;;5.85;2.85;;;;;;;15.88;71.69;100985.94;6002727;28;20034;-66
2022/07/03 04:33:22;;;;;;;5.13;2.43;;;;;;;15.82;72.18;100975.94;6002969;28;20348;-66
2022/07/03 04:36:18;;;;;;;3.23;2.60;;;;;;;16.21;71.11;100973.25;6003485;28;20042;-66
2022/07/03 04:39:13;;;;;;;3.38;2.30;;;;;;;16.53;69.62;100966.88;5996734;28;20031;-66
2022/07/03 04:42:09;;;;;;;5.20;2.30;;;;;;;16.83;68.73;100987.41;6002346;28;20038;-67
2022/07/03 04:45:04;;;;;;;4.53;2.50;;;;;;;17.12;66.86;100978.63;6002647;28;20043;-67
2022/07/03 04:48:00;;;;;;;3.60;2.53;;;;;;;17.41;66.44;100969.78;5993089;28;20398;-67
2022/07/03 04:50:55;;;;;;;5.00;2.10;;;;;;;17.88;64.48;100991.75;6001770;28;20085;-67
2022/07/03 04:53:51;;;;;;;3.60;2.35;;;;;;;18.32;63.32;100983.59;6003343;28;20033;-68
2022/07/03 04:56:46;;;;;;;4.97;2.43;;;;;;;18.08;63.82;100990.13;6002073;28;20155;-67
2022/07/03 04:59:41;;;;;;;6.53;2.47;;;;;;;18.10;63.75;100987.28;6003014;28;20035;-66
2022/07/03 05:02:37;;;;;;;5.73;2.80;;;;;;;18.12;63.68;100985.22;5996771;28;20077;-66
2022/07/03 05:05:32;;;;;;;5.23;2.97;;;;;;;18.45;63.08;100975.69;6014330;28;20035;-67
2022/07/03 05:08:27;;;;;;;7.05;2.70;;;;;;;18.55;62.42;100973.56;6003055;28;20281;-66
2022/07/03 05:11:23;;;;;;;6.77;3.13;;;;;;;18.71;62.49;100972.47;5999287;28;20090;-67
2022/07/03 05:14:18;;;;;;;4.82;2.42;;;;;;;19.43;60.18;100975.78;6000712;28;20030;-67
2022/07/03 05:17:13;;;;;;;5.70;2.90;;;;;;;19.87;59.08;100970.00;6006771;28;20043;-67
2022/07/03 05:20:24;;;;;;;6.40;2.80;;;;;;;19.47;60.64;100967.09;6004470;28;20030;-67
2022/07/03 05:23:19;;;;;;;7.63;2.80;;;;;;;20.16;58.50;100981.31;6002717;28;20061;-67
2022/07/03 05:26:15;;;;;;;6.97;3.22;;;;;;;20.23;57.61;100977.81;6002446;28;20101;-67
2022/07/03 05:29:10;;;;;;;7.32;3.63;;;;;;;19.69;59.01;100981.31;5991361;28;20043;-67
2022/07/03 05:32:06;;;;;;;10.23;3.47;;;;;;;19.63;60.09;100976.72;6010056;28;20049;-67
2022/07/03 05:35:02;;;;;;;9.25;3.08;;;;;;;19.98;58.36;100970.25;6002522;28;20054;-66
2022/07/03 05:37:57;;;;;;;5.60;2.80;;;;;;;19.83;58.35;100966.06;6002432;28;20111;-67
2022/07/03 05:40:53;;;;;;;6.90;2.87;;;;;;;20.38;57.07;100963.19;6001683;28;20026;-68
2022/07/03 05:43:48;;;;;;;7.97;3.00;;;;;;;20.36;56.85;100977.88;6002256;28;20027;-67
2022/07/03 05:46:44;;;;;;;5.22;2.17;;;;;;;20.41;56.83;100978.13;6000438;28;20337;-67
2022/07/03 05:49:39;;;;;;;5.67;2.80;;;;;;;20.69;55.22;100968.00;6002401;28;20035;-67
2022/07/03 05:52:34;;;;;;;5.13;2.40;;;;;;;20.87;54.26;100965.53;6001752;28;20034;-67
2022/07/03 05:55:29;;;;;;;6.60;2.63;;;;;;;21.43;53.98;100970.50;6004092;28;20278;-67
2022/07/03 05:58:25;;;;;;;5.63;2.43;;;;;;;21.04;54.50;100965.94;6007165;28;20042;-67
2022/07/03 06:01:20;;;;;;;4.53;2.30;;;;;;;21.14;53.96;100964.53;6005527;28;20122;-67
2022/07/03 06:04:16;;;;;;;10.00;2.53;;;;;;;21.48;53.38;100959.91;6008288;28;20075;-67
2022/07/03 06:07:11;;;;;;;5.60;2.35;;;;;;;21.63;53.20;100961.34;6000873;28;20034;-67
2022/07/03 06:10:07;;;;;;;5.13;2.30;;;;;;;22.07;50.92;100960.56;6001818;28;20162;-67
2022/07/03 06:13:02;;;;;;;8.85;2.70;;;;;;;21.81;52.10;100957.94;6005647;28;20161;-67
2022/07/03 06:15:57;;;;;;;6.33;2.90;;;;;;;22.01;51.68;100964.13;6006349;28;20482;-67
2022/07/03 06:18:53;;;;;;;3.53;2.03;;;;;;;22.37;50.95;100958.94;6006206;28;20792;-67
2022/07/03 06:21:48;;;;;;;5.97;2.67;;;;;;;22.47;51.30;100969.31;6005816;28;20325;-67
2022/07/03 06:24:43;;;;;;;3.90;2.10;;;;;;;23.19;48.31;100957.94;6003857;28;20289;-67
2022/07/03 06:27:39;;;;;;;5.63;2.53;;;;;;;23.45;48.09;100963.16;6005972;28;20039;-67
2022/07/03 06:30:34;;;;;;;4.33;2.30;;;;;;;24.24;45.35;100951.38;6005365;28;20471;-67
2022/07/03 06:33:29;;;;;;;3.90;2.03;;;;;;;23.38;48.36;100962.38;5997826;28;20921;-67
2022/07/03 06:36:25;;;;;;;2.80;1.70;;;;;;;24.02;46.40;100958.31;6003048;28;20510;-67
2022/07/03 06:39:20;;;;;;;3.27;1.80;;;;;;;24.28;46.13;100956.09;6005507;28;20077;-67
2022/07/03 06:42:15;;;;;;;3.73;1.47;;;;;;;24.48;46.17;100963.97;6005261;28;20034;-67
2022/07/03 06:45:10;;;;;;;2.00;1.30;;;;;;;24.30;46.07;100974.84;6003238;28;20750;-67
2022/07/03 06:48:06;;;;;;;3.40;2.13;;;;;;;24.80;45.62;100959.94;6005480;28;20023;-67
2022/07/03 06:51:01;;;;;;;3.23;1.60;;;;;;;25.26;44.18;100956.44;6004462;28;20341;-67
2022/07/03 06:53:56;;;;;;;2.67;1.70;;;;;;;25.33;45.16;100975.31;6002863;28;20042;-67
2022/07/03 06:56:52;;;;;;;2.83;1.40;;;;;;;25.38;44.03;100983.63;6005891;28;20062;-67
2022/07/03 06:59:48;;;;;;;5.50;1.60;;;;;;;25.77;43.98;100974.72;6005443;28;20038;-67
2022/07/03 07:02:43;;;;;;;2.58;1.40;;;;;;;26.24;41.65;100966.47;6004036;28;20651;-67
2022/07/03 07:05:38;;;;;;;2.92;1.52;;;;;;;25.95;42.38;100957.44;6005229;28;20038;-67
2022/07/03 07:08:34;;;;;;;2.17;1.30;;;;;;;25.98;41.12;100970.56;5992646;28;20035;-67
2022/07/03 07:11:29;;;;;;;1.95;1.38;;;;;;;25.57;41.67;100973.47;6003962;28;20019;-68
2022/07/03 07:14:25;;;;;;;1.73;1.45;;;;;;;25.88;41.12;100976.59;6006144;28;20038;-67
2022/07/03 07:17:20;;;;;;;1.70;1.37;;;;;;;25.99;41.45;100978.47;6004380;28;20039;-67
2022/07/03 07:20:15;;;;;;;2.87;1.40;;;;;;;26.21;40.22;100980.56;6003644;28;20337;-67
2022/07/03 07:23:10;;;;;;;2.23;1.40;;;;;;;26.01;40.29;100975.50;6005066;28;20286;-67
2022/07/03 07:26:07;;;;;;;2.93;1.40;;;;;;;26.37;39.20;100968.91;6001394;28;20090;-67
2022/07/03 07:29:02;;;;;;;3.50;1.88;;;;;;;26.07;39.65;100971.00;6004792;28;20510;-67
2022/07/03 07:31:57;;;;;;;2.00;1.40;;;;;;;26.14;40.10;100969.00;5992874;28;20035;-67
2022/07/03 07:34:53;;;;;;;2.50;1.70;;;;;;;26.06;42.18;100967.47;6005165;28;20125;-68
2022/07/03 07:37:48;;;;;;;1.77;1.50;;;;;;;25.84;40.58;100970.00;5996267;28;20277;-67
2022/07/03 07:40:44;;;;;;;1.50;1.30;;;;;;;26.61;40.76;100964.97;5998462;28;20286;-65
2022/07/03 07:43:39;;;;;;;1.88;1.20;;;;;;;26.59;39.95;100969.84;5995477;28;20038;-65
2022/07/03 07:46:34;;;;;;;6.20;1.53;;;;;;;26.35;40.80;100980.03;6002861;28;20031;-67
2022/07/03 07:49:30;;;;;;;2.10;1.27;;;;;;;26.87;39.95;100969.84;6004556;28;20042;-68
2022/07/03 07:52:25;;;;;;;2.13;1.30;;;;;;;26.78;38.37;100974.03;6003672;28;20042;-67
2022/07/03 07:55:21;;;;;;;2.03;1.37;;;;;;;26.73;39.07;100976.66;6006905;28;20038;-67
2022/07/03 07:58:16;;;;;;;3.70;1.17;;;;;;;26.89;37.68;100972.31;6003705;28;20742;-67
2022/07/03 08:07:39;;;;;;;5.65;1.65;;;;;;;27.07;38.89;100982.94;6003706;28;20035;-67
2022/07/03 08:10:40;;;;;;;1.97;1.30;;;;;;;26.90;38.42;100984.84;6003409;28;20038;-66
2022/07/03 08:13:35;;;;;;;3.42;1.30;;;;;;;26.65;40.01;100977.03;5999591;28;20035;-66
2022/07/03 08:16:31;;;;;;;2.43;1.50;;;;;;;26.83;38.92;100976.84;6003892;28;20626;-67
2022/07/03 08:19:26;;;;;;;2.58;1.30;;;;;;;27.09;38.07;100989.81;6002836;28;20034;-66
2022/07/03 08:22:21;;;;;;;1.33;1.17;;;;;;;27.06;38.69;100984.88;6002913;28;20520;-67
2022/07/03 08:25:17;;;;;;;3.43;1.50;;;;;;;27.13;37.65;100974.63;6003747;28;20121;-67
2022/07/03 08:28:12;;;;;;;3.15;1.35;;;;;;;27.19;38.93;100984.53;6000057;28;20026;-66
2022/07/03 08:31:07;;;;;;;2.17;1.30;;;;;;;27.09;38.27;100978.94;6001842;28;20042;-67
2022/07/03 08:34:02;;;;;;;2.10;1.30;;;;;;;27.32;38.33;100983.34;6001467;28;20045;-67
2022/07/03 08:36:58;;;;;;;1.80;1.33;;;;;;;27.52;38.75;100977.41;6003349;28;20039;-67
2022/07/03 08:39:53;;;;;;;2.07;1.50;;;;;;;27.11;39.12;100979.50;6001475;28;20054;-67
2022/07/03 08:42:52;;;;;;;1.80;1.30;;;;;;;27.42;38.47;100977.28;6001817;28;20290;-67
2022/07/03 08:45:47;;;;;;;3.35;1.45;;;;;;;27.56;37.50;100956.75;6003327;28;20467;-67
2022/07/03 08:48:43;;;;;;;1.93;1.33;;;;;;;27.64;37.07;100969.97;6003093;28;20049;-67
2022/07/03 08:51:40;;;;;;;4.93;1.50;;;;;;;27.67;37.04;100969.44;6002133;28;20824;-67
2022/07/03 08:54:36;;;;;;;4.93;1.30;;;;;;;27.39;38.28;100972.28;6003012;28;20156;-67
2022/07/03 08:57:32;;;;;;;1.95;1.50;;;;;;;27.61;38.24;100976.72;6017714;28;20424;-66
2022/07/03 09:00:28;;;;;;;2.83;1.23;;;;;;;28.17;37.94;100972.84;6001758;28;20043;-67
2022/07/03 09:03:24;;;;;;;4.32;1.30;;;;;;;28.46;38.10;100965.22;6002190;28;20415;-67
2022/07/03 09:06:20;;;;;;;2.53;1.50;;;;;;;28.49;35.69;100967.44;6003085;28;20031;-67
2022/07/03 09:09:15;;;;;;;1.67;1.30;;;;;;;28.82;36.62;100969.16;6017820;28;20390;-67
2022/07/03 09:12:13;;;;;;;1.77;1.30;;;;;;;28.07;36.76;100978.19;6002322;28;20049;-67
2022/07/03 09:15:09;;;;;;;3.00;1.60;;;;;;;28.31;38.22;100973.28;6002442;28;20031;-67
2022/07/03 09:18:06;;;;;;;4.63;1.40;;;;;;;28.45;35.63;100981.88;6002503;28;20037;-67
2022/07/03 09:21:02;;;;;;;1.92;1.30;;;;;;;28.71;35.71;100970.13;6002023;28;20069;-67
2022/07/03 09:24:04;;;;;;;1.95;1.60;;;;;;;28.93;35.82;100971.72;6001333;28;20081;-67
2022/07/03 09:26:59;;;;;;;4.13;1.75;;;;;;;28.76;37.21;100967.44;6002165;28;20498;-67
2022/07/03 09:30:01;;;;;;;2.67;1.40;;;;;;;28.91;36.26;100973.06;5995749;28;20094;-67
2022/07/03 09:32:56;;;;;;;1.50;1.13;;;;;;;28.57;35.64;100960.69;5998377;28;20747;-66
2022/07/03 09:35:55;;;;;;;3.50;1.30;;;;;;;28.66;35.68;100961.91;6002442;28;20031;-67
2022/07/03 09:38:50;;;;;;;1.90;1.45;;;;;;;28.54;35.88;100953.84;6002210;28;20026;-67
2022/07/03 09:42:09;;;;;;;3.03;1.30;;;;;;;28.50;35.61;100955.47;6000635;28;20041;-67
2022/07/03 09:45:05;;;;;;;2.55;1.67;;;;;;;28.53;36.82;100948.66;5999879;28;20035;-68
2022/07/03 09:48:00;;;;;;;2.17;1.45;;;;;;;28.80;36.80;100957.66;5998782;28;20038;-67
2022/07/03 09:51:23;;;;;;;2.27;1.50;;;;;;;29.21;35.66;100967.00;6001485;28;20034;-67
2022/07/03 09:54:18;;;;;;;3.28;1.40;;;;;;;29.33;35.66;100957.53;6002143;28;20113;-67
2022/07/03 09:57:13;;;;;;;2.53;1.37;;;;;;;29.32;33.17;100955.91;6002206;28;20046;-67
2022/07/03 10:00:23;;;;;;;1.87;1.67;;;;;;;29.43;32.68;100957.59;6001045;28;20274;-68
2022/07/03 10:03:20;;;;;;;2.85;1.40;;;;;;;29.12;35.29;100950.28;6001578;28;20041;-67
2022/07/03 10:06:15;;;;;;;2.28;1.08;;;;;;;29.55;33.17;100953.84;6001218;28;20452;-68
2022/07/03 10:09:11;;;;;;;1.77;1.23;;;;;;;28.82;32.50;100959.06;5989912;28;20041;-67
2022/07/03 10:12:06;;;;;;;2.53;1.30;;;;;;;29.01;32.62;100954.00;6000080;28;20023;-67
2022/07/03 10:15:02;;;;;;;1.90;1.40;;;;;;;29.16;33.65;100959.56;6001946;28;20506;-67
2022/07/03 10:17:59;;;;;;;2.72;1.42;;;;;;;29.35;34.47;100951.84;6000238;28;20037;-68
2022/07/03 10:20:57;;;;;;;2.70;1.30;;;;;;;29.21;33.17;100950.63;6000247;28;20372;-67
2022/07/03 10:23:52;;;;;;;3.50;1.52;;;;;;;29.24;33.31;100956.41;6000121;28;20049;-67
2022/07/03 10:26:49;;;;;;;4.13;1.25;;;;;;;29.29;34.13;100956.44;6002168;28;20371;-68
2022/07/03 10:29:44;;;;;;;2.60;1.30;;;;;;;29.42;34.21;100961.44;5990863;28;20038;-68
2022/07/03 10:32:40;;;;;;;2.63;1.50;;;;;;;29.23;33.24;100957.50;5999308;28;20066;-68
2022/07/03 10:35:38;;;;;;;2.20;1.30;;;;;;;29.17;33.93;100955.78;5997483;28;20049;-67
2022/07/03 10:38:39;;;;;;;2.92;1.35;;;;;;;29.44;33.18;100948.31;6000639;28;20035;-67
2022/07/03 10:45:13;;;;;;;1.50;1.25;;;;;;;29.75;31.39;100945.75;6004230;28;20035;-67
2022/07/03 10:48:09;;;;;;;4.50;1.45;;;;;;;29.69;32.64;100938.59;6006221;28;20037;-68
2022/07/03 10:51:13;;;;;;;2.13;1.47;;;;;;;29.43;32.01;100935.72;5992235;28;20039;-67
2022/07/03 10:54:21;;;;;;;2.10;1.30;;;;;;;29.25;32.30;100938.91;5999524;28;20027;-68
2022/07/03 10:57:17;;;;;;;2.45;1.40;;;;;;;29.45;33.23;100935.47;6004100;28;20535;-68
2022/07/03 11:00:18;;;;;;;2.20;1.55;;;;;;;29.49;30.94;100923.75;6005110;28;20038;-68
2022/07/03 11:03:53;;;;;;;1.98;1.33;;;;;;;29.63;31.01;100928.72;6013105;28;20030;-67
2022/07/03 11:06:57;;;;;;;5.28;1.45;;;;;;;29.91;30.70;100914.66;6000238;28;20601;-68
2022/07/03 11:10:12;;;;;;;2.53;1.40;;;;;;;29.99;32.67;100906.75;6004074;28;20034;-68
2022/07/03 11:13:09;;;;;;;3.60;1.40;;;;;;;29.97;31.86;100919.88;5998953;28;20518;-67
2022/07/03 11:16:23;;;;;;;2.67;1.40;;;;;;;30.03;30.69;100915.25;6012700;28;20058;-67
2022/07/03 11:19:25;;;;;;;3.22;1.65;;;;;;;30.03;29.37;100912.53;6005758;28;20129;-67
2022/07/03 11:22:23;;;;;;;3.72;1.17;;;;;;;30.31;31.61;100925.69;5997683;28;20031;-67
2022/07/03 11:25:19;;;;;;;4.03;1.52;;;;;;;30.15;30.23;100913.09;6003417;28;20475;-68
2022/07/03 11:28:32;;;;;;;4.65;1.23;;;;;;;30.52;31.69;100916.44;6003639;28;20038;-68
2022/07/03 11:31:28;;;;;;;3.35;1.20;;;;;;;30.60;31.71;100926.84;6000653;28;20047;-68
2022/07/03 11:34:24;;;;;;;2.92;1.35;;;;;;;30.65;30.01;100913.19;6001713;28;20050;-68
2022/07/03 11:37:19;;;;;;;5.37;1.30;;;;;;;30.52;28.18;100907.44;6002081;28;20039;-68
2022/07/03 11:40:15;;;;;;;2.42;1.20;;;;;;;30.59;31.77;100917.00;5993802;28;20333;-68
2022/07/03 11:43:11;;;;;;;2.60;1.07;;;;;;;30.65;30.16;100913.19;5999663;28;20030;-67
2022/07/03 11:46:07;;;;;;;3.13;1.50;;;;;;;29.99;29.40;100900.47;5995661;28;20286;-67
2022/07/03 11:49:13;;;;;;;2.40;1.20;;;;;;;30.27;29.13;100907.38;5996561;28;20049;-67
2022/07/03 11:52:08;;;;;;;3.70;1.20;;;;;;;29.92;29.30;100905.38;5997932;28;20285;-67
2022/07/03 11:55:04;;;;;;;1.27;1.17;;;;;;;30.09;30.74;100916.88;5994516;28;20058;-68
2022/07/03 11:57:59;;;;;;;2.60;1.10;;;;;;;29.95;30.04;100900.16;5999179;28;20454;-68
2022/07/03 12:00:54;;;;;;;2.30;1.20;;;;;;;29.64;29.16;100908.50;5984248;28;20054;-67
2022/07/03 12:03:50;;;;;;;2.45;1.27;;;;;;;29.90;30.50;100897.41;5997172;28;20039;-68
2022/07/03 12:06:48;;;;;;;4.55;1.23;;;;;;;30.31;30.58;100901.06;5994450;28;20402;-68
2022/07/03 12:09:44;;;;;;;1.55;1.23;;;;;;;30.12;30.46;100894.47;6001096;28;20043;-68
2022/07/03 12:12:40;;;;;;;2.22;1.15;;;;;;;30.21;29.17;100902.97;6002269;28;20039;-68
2022/07/03 12:15:35;;;;;;;2.30;1.30;;;;;;;30.42;30.99;100905.50;6000351;28;20114;-67
2022/07/03 12:18:51;;;;;;;3.40;1.40;;;;;;;30.48;29.16;100900.84;6003419;28;20030;-68
2022/07/03 12:21:46;;;;;;;2.97;1.33;;;;;;;31.01;29.41;100896.75;5995764;28;20122;-68
2022/07/03 12:24:42;;;;;;;3.13;1.30;;;;;;;31.06;28.23;100883.88;6001445;28;20088;-68
2022/07/03 12:27:39;;;;;;;4.32;1.20;;;;;;;31.05;28.55;100892.34;6001658;28;20599;-67
2022/07/03 12:30:35;;;;;;;1.90;0.98;;;;;;;31.22;27.90;100898.34;6003030;28;20159;-68
2022/07/03 12:33:35;;;;;;;2.13;1.20;;;;;;;30.72;28.11;100887.41;6001648;28;20038;-67
2022/07/03 12:36:35;;;;;;;2.45;1.50;;;;;;;30.82;29.42;100893.72;6004624;28;20483;-68
2022/07/03 12:39:41;;;;;;;4.70;1.75;;;;;;;31.16;29.10;100883.00;6002982;28;20027;-68
2022/07/03 12:42:45;;;;;;;3.15;1.30;;;;;;;31.64;27.77;100887.81;6002265;28;20085;-68
2022/07/03 12:45:40;;;;;;;2.05;1.00;;;;;;;30.53;28.18;100879.75;5989908;28;20073;-68
2022/07/03 12:48:44;;;;;;;2.78;1.20;;;;;;;30.52;28.68;100880.84;6003551;28;20031;-68
2022/07/03 12:51:44;;;;;;;3.08;1.15;;;;;;;30.08;29.64;100887.91;6002669;28;20534;-68
2022/07/03 12:54:39;;;;;;;3.28;1.10;;;;;;;30.46;29.22;100881.97;6003179;28;20034;-68
2022/07/03 13:00:49;;;;;;;2.00;1.35;;;;;;;31.02;28.82;100869.06;5999484;28;20410;-68
2022/07/03 13:03:49;;;;;;;2.92;1.40;;;;;;;30.91;27.45;100880.28;6002655;28;20066;-67
2022/07/03 13:06:47;;;;;;;1.42;1.02;;;;;;;31.19;28.74;100868.75;6002281;28;20043;-68
2022/07/03 13:09:43;;;;;;;1.95;1.10;;;;;;;30.56;28.44;100873.75;5992318;28;20439;-68
2022/07/03 13:12:48;;;;;;;2.25;1.10;;;;;;;30.25;29.81;100866.56;5990935;28;20036;-67
2022/07/03 13:15:43;;;;;;;1.17;1.08;;;;;;;30.31;31.42;100857.28;5986169;28;20038;-67
2022/07/03 13:19:05;;;;;;;3.10;1.10;;;;;;;30.44;28.79;100870.44;6001434;28;20136;-68
2022/07/03 13:22:00;;;;;;;2.15;1.20;;;;;;;30.50;28.28;100869.34;6002124;28;20038;-68
2022/07/03 13:24:56;;;;;;;1.53;0.97;;;;;;;30.52;27.96;100861.69;6002602;28;20055;-68
2022/07/03 13:27:51;;;;;;;1.83;1.30;;;;;;;30.61;28.54;100854.56;6002446;28;20401;-68
2022/07/03 13:30:46;;;;;;;2.67;1.10;;;;;;;30.75;29.82;100859.47;6002138;28;20039;-68
2022/07/03 13:33:42;;;;;;;3.07;1.20;;;;;;;31.04;28.16;100852.34;5999335;28;20034;-68
2022/07/03 13:36:37;;;;;;;1.40;1.00;;;;;;;31.07;26.87;100846.28;6002677;28;20057;-68
2022/07/03 13:39:32;;;;;;;2.50;1.20;;;;;;;31.44;28.15;100846.75;6001324;28;20463;-67
2022/07/03 13:42:28;;;;;;;2.40;1.00;;;;;;;31.29;27.07;100852.25;6001558;28;20757;-68
2022/07/03 13:45:23;;;;;;;2.30;1.20;;;;;;;31.15;28.04;100842.97;6002544;28;20029;-68
2022/07/03 13:48:18;;;;;;;1.37;1.07;;;;;;;31.31;26.47;100828.13;6001511;28;20278;-68
2022/07/03 13:51:14;;;;;;;4.83;1.10;;;;;;;31.79;26.36;100846.59;6001055;28;20267;-67
2022/07/03 13:54:09;;;;;;;1.45;1.10;;;;;;;31.73;27.73;100844.97;6002394;28;20063;-68
2022/07/03 13:57:04;;;;;;;3.80;1.10;;;;;;;32.07;24.95;100836.03;6002166;28;20073;-67
2022/07/03 14:00:00;;;;;;;1.45;1.05;;;;;;;31.74;26.58;100832.09;6001920;28;20281;-68